METAR Data

Data at: 1203 UTC 24 May 2022

METAR for:KGHG (Marshfield Muni, MA, US)
Text:KGHG 241155Z AUTO 05003G10KT 10SM CLR 12/07 A3034 RMK AO2
Temperature: 12.0°C ( 54°F)
Dewpoint: 7.0°C ( 45°F) [RH = 71%]
Pressure (altimeter):30.34 inches Hg (1027.5 mb)
Winds:from the NE (50 degrees) at 3 MPH (3 knots; 1.5 m/s) gusting to 12 MPH (10 knots; 5.1 m/s)
Visibility:10 or more sm (16+ km)
Ceiling:at least 12,000 feet AGL
Clouds:sky clear below 12,000 feet AGL
QC Flag:automated observation with no human augmentation